sensor_id;sensor_type;location;lat;lon;timestamp;P1;durP1;ratioP1;P2;durP2;ratioP2
18188;SDS011;9219;50.396;8.546;2023-05-29T00:01:40;5.03;;;2.50;;
18188;SDS011;9219;50.396;8.546;2023-05-29T00:04:07;5.13;;;2.37;;
18188;SDS011;9219;50.396;8.546;2023-05-29T00:06:34;5.30;;;2.73;;
18188;SDS011;9219;50.396;8.546;2023-05-29T00:09:02;3.67;;;2.50;;
18188;SDS011;9219;50.396;8.546;2023-05-29T00:11:31;6.23;;;2.80;;
18188;SDS011;9219;50.396;8.546;2023-05-29T00:18:29;7.73;;;2.80;;
18188;SDS011;9219;50.396;8.546;2023-05-29T00:20:56;7.70;;;2.87;;
18188;SDS011;9219;50.396;8.546;2023-05-29T00:23:24;6.07;;;2.63;;
18188;SDS011;9219;50.396;8.546;2023-05-29T00:25:51;5.63;;;3.27;;
18188;SDS011;9219;50.396;8.546;2023-05-29T00:28:19;4.10;;;2.63;;
18188;SDS011;9219;50.396;8.546;2023-05-29T00:30:47;4.97;;;2.37;;
18188;SDS011;9219;50.396;8.546;2023-05-29T00:33:13;5.13;;;2.73;;
18188;SDS011;9219;50.396;8.546;2023-05-29T00:35:42;6.63;;;2.70;;
18188;SDS011;9219;50.396;8.546;2023-05-29T00:43:24;4.43;;;2.70;;
18188;SDS011;9219;50.396;8.546;2023-05-29T00:45:53;3.33;;;2.03;;
18188;SDS011;9219;50.396;8.546;2023-05-29T00:48:20;4.27;;;2.47;;
18188;SDS011;9219;50.396;8.546;2023-05-29T00:50:47;7.57;;;2.97;;
18188;SDS011;9219;50.396;8.546;2023-05-29T00:53:14;7.10;;;2.90;;
18188;SDS011;9219;50.396;8.546;2023-05-29T00:55:42;5.63;;;2.27;;
18188;SDS011;9219;50.396;8.546;2023-05-29T00:58:10;5.90;;;2.73;;
18188;SDS011;9219;50.396;8.546;2023-05-29T01:06:12;5.23;;;2.83;;
18188;SDS011;9219;50.396;8.546;2023-05-29T01:08:39;3.10;;;2.70;;
18188;SDS011;9219;50.396;8.546;2023-05-29T01:11:08;7.03;;;2.67;;
18188;SDS011;9219;50.396;8.546;2023-05-29T01:13:39;4.47;;;3.00;;
18188;SDS011;9219;50.396;8.546;2023-05-29T01:16:11;5.60;;;2.60;;
18188;SDS011;9219;50.396;8.546;2023-05-29T01:18:43;8.57;;;2.70;;
18188;SDS011;9219;50.396;8.546;2023-05-29T01:21:20;5.40;;;3.10;;
18188;SDS011;9219;50.396;8.546;2023-05-29T01:27:07;5.80;;;2.43;;
18188;SDS011;9219;50.396;8.546;2023-05-29T01:29:37;3.90;;;2.10;;
18188;SDS011;9219;50.396;8.546;2023-05-29T01:32:08;8.63;;;3.43;;
18188;SDS011;9219;50.396;8.546;2023-05-29T01:34:36;4.67;;;2.63;;
18188;SDS011;9219;50.396;8.546;2023-05-29T01:37:04;11.27;;;3.27;;
18188;SDS011;9219;50.396;8.546;2023-05-29T01:39:34;4.93;;;2.83;;
18188;SDS011;9219;50.396;8.546;2023-05-29T01:42:01;6.77;;;3.07;;
18188;SDS011;9219;50.396;8.546;2023-05-29T01:47:09;8.40;;;3.73;;
18188;SDS011;9219;50.396;8.546;2023-05-29T01:49:37;5.80;;;3.10;;
18188;SDS011;9219;50.396;8.546;2023-05-29T01:52:05;13.80;;;4.20;;
18188;SDS011;9219;50.396;8.546;2023-05-29T01:54:33;5.57;;;3.27;;
18188;SDS011;9219;50.396;8.546;2023-05-29T01:57:00;6.80;;;3.60;;
18188;SDS011;9219;50.396;8.546;2023-05-29T01:59:31;9.13;;;3.33;;
18188;SDS011;9219;50.396;8.546;2023-05-29T02:02:04;9.37;;;3.93;;
18188;SDS011;9219;50.396;8.546;2023-05-29T02:07:38;8.63;;;4.00;;
18188;SDS011;9219;50.396;8.546;2023-05-29T02:10:06;11.30;;;3.83;;
18188;SDS011;9219;50.396;8.546;2023-05-29T02:12:33;7.00;;;3.70;;
18188;SDS011;9219;50.396;8.546;2023-05-29T02:15:01;10.97;;;3.80;;
18188;SDS011;9219;50.396;8.546;2023-05-29T02:17:28;8.93;;;4.13;;
18188;SDS011;9219;50.396;8.546;2023-05-29T02:19:56;13.53;;;4.43;;
18188;SDS011;9219;50.396;8.546;2023-05-29T02:22:24;11.20;;;4.10;;
18188;SDS011;9219;50.396;8.546;2023-05-29T02:24:52;12.20;;;4.33;;
18188;SDS011;9219;50.396;8.546;2023-05-29T02:32:24;11.77;;;4.27;;
18188;SDS011;9219;50.396;8.546;2023-05-29T02:34:53;11.17;;;4.57;;
18188;SDS011;9219;50.396;8.546;2023-05-29T02:37:20;13.07;;;4.03;;
18188;SDS011;9219;50.396;8.546;2023-05-29T02:39:51;10.73;;;4.30;;
18188;SDS011;9219;50.396;8.546;2023-05-29T02:42:18;9.73;;;3.93;;
18188;SDS011;9219;50.396;8.546;2023-05-29T02:44:45;9.17;;;4.13;;
18188;SDS011;9219;50.396;8.546;2023-05-29T02:47:12;10.63;;;5.07;;
18188;SDS011;9219;50.396;8.546;2023-05-29T02:49:41;8.00;;;4.60;;
18188;SDS011;9219;50.396;8.546;2023-05-29T02:57:12;13.27;;;4.37;;
18188;SDS011;9219;50.396;8.546;2023-05-29T02:59:39;8.20;;;3.97;;
18188;SDS011;9219;50.396;8.546;2023-05-29T03:02:07;8.77;;;4.67;;
18188;SDS011;9219;50.396;8.546;2023-05-29T03:04:34;10.20;;;4.47;;
18188;SDS011;9219;50.396;8.546;2023-05-29T03:07:01;6.90;;;4.40;;
18188;SDS011;9219;50.396;8.546;2023-05-29T03:09:28;15.63;;;4.67;;
18188;SDS011;9219;50.396;8.546;2023-05-29T03:11:55;7.07;;;3.67;;
18188;SDS011;9219;50.396;8.546;2023-05-29T03:14:24;8.37;;;4.40;;
18188;SDS011;9219;50.396;8.546;2023-05-29T03:21:57;8.47;;;4.43;;
18188;SDS011;9219;50.396;8.546;2023-05-29T03:24:25;7.70;;;4.50;;
18188;SDS011;9219;50.396;8.546;2023-05-29T03:26:53;14.63;;;4.60;;
18188;SDS011;9219;50.396;8.546;2023-05-29T03:29:20;8.40;;;5.07;;
18188;SDS011;9219;50.396;8.546;2023-05-29T03:31:47;17.03;;;5.17;;
18188;SDS011;9219;50.396;8.546;2023-05-29T03:34:15;7.73;;;4.40;;
18188;SDS011;9219;50.396;8.546;2023-05-29T03:36:43;7.33;;;5.00;;
18188;SDS011;9219;50.396;8.546;2023-05-29T03:39:13;10.10;;;5.57;;
18188;SDS011;9219;50.396;8.546;2023-05-29T03:46:45;13.00;;;4.80;;
18188;SDS011;9219;50.396;8.546;2023-05-29T03:49:12;7.90;;;4.67;;
18188;SDS011;9219;50.396;8.546;2023-05-29T03:51:39;12.60;;;4.93;;
18188;SDS011;9219;50.396;8.546;2023-05-29T03:54:07;10.37;;;5.00;;
18188;SDS011;9219;50.396;8.546;2023-05-29T03:56:34;8.93;;;4.97;;
18188;SDS011;9219;50.396;8.546;2023-05-29T03:59:02;10.43;;;4.33;;
18188;SDS011;9219;50.396;8.546;2023-05-29T04:01:29;13.93;;;5.27;;
18188;SDS011;9219;50.396;8.546;2023-05-29T04:06:37;7.50;;;4.77;;
18188;SDS011;9219;50.396;8.546;2023-05-29T04:09:05;10.27;;;4.93;;
18188;SDS011;9219;50.396;8.546;2023-05-29T04:11:32;11.17;;;5.10;;
18188;SDS011;9219;50.396;8.546;2023-05-29T04:14:00;10.60;;;5.20;;
18188;SDS011;9219;50.396;8.546;2023-05-29T04:16:28;12.90;;;5.23;;
18188;SDS011;9219;50.396;8.546;2023-05-29T04:18:55;8.00;;;4.70;;
18188;SDS011;9219;50.396;8.546;2023-05-29T04:21:22;23.50;;;6.50;;
18188;SDS011;9219;50.396;8.546;2023-05-29T04:23:52;12.93;;;5.13;;
18188;SDS011;9219;50.396;8.546;2023-05-29T04:31:39;13.63;;;5.80;;
18188;SDS011;9219;50.396;8.546;2023-05-29T04:34:07;13.10;;;5.67;;
18188;SDS011;9219;50.396;8.546;2023-05-29T04:36:33;13.33;;;5.77;;
18188;SDS011;9219;50.396;8.546;2023-05-29T04:39:04;9.00;;;4.40;;
18188;SDS011;9219;50.396;8.546;2023-05-29T04:41:32;7.27;;;4.47;;
18188;SDS011;9219;50.396;8.546;2023-05-29T04:44:01;9.33;;;5.43;;
18188;SDS011;9219;50.396;8.546;2023-05-29T04:46:29;8.23;;;5.27;;
18188;SDS011;9219;50.396;8.546;2023-05-29T04:48:59;9.13;;;4.90;;
18188;SDS011;9219;50.396;8.546;2023-05-29T04:56:47;9.47;;;5.90;;
18188;SDS011;9219;50.396;8.546;2023-05-29T04:59:15;12.07;;;5.50;;
18188;SDS011;9219;50.396;8.546;2023-05-29T05:01:42;15.47;;;5.87;;
18188;SDS011;9219;50.396;8.546;2023-05-29T05:04:10;16.10;;;6.30;;
18188;SDS011;9219;50.396;8.546;2023-05-29T05:06:37;9.23;;;5.97;;
18188;SDS011;9219;50.396;8.546;2023-05-29T05:09:05;12.53;;;5.53;;
18188;SDS011;9219;50.396;8.546;2023-05-29T05:11:32;11.27;;;6.87;;
18188;SDS011;9219;50.396;8.546;2023-05-29T05:14:00;11.43;;;5.90;;
18188;SDS011;9219;50.396;8.546;2023-05-29T05:21:32;12.07;;;5.60;;
18188;SDS011;9219;50.396;8.546;2023-05-29T05:23:59;11.40;;;5.43;;
18188;SDS011;9219;50.396;8.546;2023-05-29T05:26:27;14.93;;;5.53;;
18188;SDS011;9219;50.396;8.546;2023-05-29T05:28:54;9.63;;;5.33;;
18188;SDS011;9219;50.396;8.546;2023-05-29T05:31:21;10.00;;;5.40;;
18188;SDS011;9219;50.396;8.546;2023-05-29T05:33:49;10.87;;;4.50;;
18188;SDS011;9219;50.396;8.546;2023-05-29T05:36:17;10.70;;;5.77;;
18188;SDS011;9219;50.396;8.546;2023-05-29T05:38:45;13.60;;;5.87;;
18188;SDS011;9219;50.396;8.546;2023-05-29T05:46:18;8.83;;;4.87;;
18188;SDS011;9219;50.396;8.546;2023-05-29T05:48:45;10.63;;;4.67;;
18188;SDS011;9219;50.396;8.546;2023-05-29T05:51:12;14.07;;;5.33;;
18188;SDS011;9219;50.396;8.546;2023-05-29T05:53:40;7.57;;;4.40;;
18188;SDS011;9219;50.396;8.546;2023-05-29T05:56:07;13.07;;;4.33;;
18188;SDS011;9219;50.396;8.546;2023-05-29T05:58:35;6.77;;;4.20;;
18188;SDS011;9219;50.396;8.546;2023-05-29T06:01:02;8.30;;;4.57;;
18188;SDS011;9219;50.396;8.546;2023-05-29T06:03:31;10.63;;;4.90;;
18188;SDS011;9219;50.396;8.546;2023-05-29T06:11:02;9.90;;;4.17;;
18188;SDS011;9219;50.396;8.546;2023-05-29T06:13:29;8.80;;;4.40;;
18188;SDS011;9219;50.396;8.546;2023-05-29T06:15:57;9.10;;;4.47;;
18188;SDS011;9219;50.396;8.546;2023-05-29T06:18:24;9.43;;;4.57;;
18188;SDS011;9219;50.396;8.546;2023-05-29T06:20:53;13.40;;;4.37;;
18188;SDS011;9219;50.396;8.546;2023-05-29T06:23:20;8.33;;;4.27;;
18188;SDS011;9219;50.396;8.546;2023-05-29T06:25:48;7.53;;;4.17;;
18188;SDS011;9219;50.396;8.546;2023-05-29T06:28:16;11.70;;;5.47;;
18188;SDS011;9219;50.396;8.546;2023-05-29T06:36:03;7.97;;;4.60;;
18188;SDS011;9219;50.396;8.546;2023-05-29T06:38:32;8.20;;;4.73;;
18188;SDS011;9219;50.396;8.546;2023-05-29T06:40:59;11.50;;;5.20;;
18188;SDS011;9219;50.396;8.546;2023-05-29T06:43:27;8.00;;;4.83;;
18188;SDS011;9219;50.396;8.546;2023-05-29T06:45:55;6.10;;;4.13;;
18188;SDS011;9219;50.396;8.546;2023-05-29T06:48:22;13.50;;;5.17;;
18188;SDS011;9219;50.396;8.546;2023-05-29T06:50:49;8.43;;;4.47;;
18188;SDS011;9219;50.396;8.546;2023-05-29T06:57:14;9.77;;;4.33;;
18188;SDS011;9219;50.396;8.546;2023-05-29T06:59:42;10.37;;;4.17;;
18188;SDS011;9219;50.396;8.546;2023-05-29T07:02:09;6.80;;;4.27;;
18188;SDS011;9219;50.396;8.546;2023-05-29T07:04:37;14.70;;;3.83;;
18188;SDS011;9219;50.396;8.546;2023-05-29T07:07:04;8.50;;;4.43;;
18188;SDS011;9219;50.396;8.546;2023-05-29T07:09:32;11.37;;;4.40;;
18188;SDS011;9219;50.396;8.546;2023-05-29T07:11:59;7.37;;;4.40;;
18188;SDS011;9219;50.396;8.546;2023-05-29T07:17:12;9.67;;;4.20;;
18188;SDS011;9219;50.396;8.546;2023-05-29T07:19:40;7.63;;;4.57;;
18188;SDS011;9219;50.396;8.546;2023-05-29T07:22:07;10.50;;;4.40;;
18188;SDS011;9219;50.396;8.546;2023-05-29T07:24:35;10.20;;;5.07;;
18188;SDS011;9219;50.396;8.546;2023-05-29T07:27:08;7.90;;;4.23;;
18188;SDS011;9219;50.396;8.546;2023-05-29T07:29:35;7.73;;;4.37;;
18188;SDS011;9219;50.396;8.546;2023-05-29T07:32:04;7.57;;;4.07;;
18188;SDS011;9219;50.396;8.546;2023-05-29T07:34:33;8.87;;;4.57;;
18188;SDS011;9219;50.396;8.546;2023-05-29T07:42:05;9.70;;;4.10;;
18188;SDS011;9219;50.396;8.546;2023-05-29T07:44:33;12.57;;;4.87;;
18188;SDS011;9219;50.396;8.546;2023-05-29T07:47:00;6.83;;;4.13;;
18188;SDS011;9219;50.396;8.546;2023-05-29T07:49:28;10.07;;;4.80;;
18188;SDS011;9219;50.396;8.546;2023-05-29T07:52:05;8.17;;;3.70;;
18188;SDS011;9219;50.396;8.546;2023-05-29T07:54:33;8.50;;;4.10;;
18188;SDS011;9219;50.396;8.546;2023-05-29T07:57:01;8.13;;;3.77;;
18188;SDS011;9219;50.396;8.546;2023-05-29T08:04:34;8.93;;;4.87;;
18188;SDS011;9219;50.396;8.546;2023-05-29T08:07:01;7.30;;;3.27;;
18188;SDS011;9219;50.396;8.546;2023-05-29T08:09:30;7.30;;;3.77;;
18188;SDS011;9219;50.396;8.546;2023-05-29T08:11:57;10.73;;;4.00;;
18188;SDS011;9219;50.396;8.546;2023-05-29T08:14:26;8.10;;;4.03;;
18188;SDS011;9219;50.396;8.546;2023-05-29T08:16:54;6.17;;;3.13;;
18188;SDS011;9219;50.396;8.546;2023-05-29T08:19:21;14.27;;;4.60;;
18188;SDS011;9219;50.396;8.546;2023-05-29T08:21:50;7.27;;;3.93;;
18188;SDS011;9219;50.396;8.546;2023-05-29T08:29:37;10.33;;;4.23;;
18188;SDS011;9219;50.396;8.546;2023-05-29T08:32:05;7.83;;;3.80;;
18188;SDS011;9219;50.396;8.546;2023-05-29T08:34:32;7.60;;;3.83;;
18188;SDS011;9219;50.396;8.546;2023-05-29T08:36:59;9.17;;;4.40;;
18188;SDS011;9219;50.396;8.546;2023-05-29T08:39:26;8.57;;;3.93;;
18188;SDS011;9219;50.396;8.546;2023-05-29T08:41:57;6.77;;;3.97;;
18188;SDS011;9219;50.396;8.546;2023-05-29T08:44:29;11.23;;;4.30;;
18188;SDS011;9219;50.396;8.546;2023-05-29T08:47:00;7.23;;;4.13;;
18188;SDS011;9219;50.396;8.546;2023-05-29T08:50:07;6.83;;;4.07;;
18188;SDS011;9219;50.396;8.546;2023-05-29T08:52:34;7.50;;;3.97;;
18188;SDS011;9219;50.396;8.546;2023-05-29T08:55:02;8.00;;;3.60;;
18188;SDS011;9219;50.396;8.546;2023-05-29T08:57:29;7.90;;;3.80;;
18188;SDS011;9219;50.396;8.546;2023-05-29T08:59:57;13.43;;;4.40;;
18188;SDS011;9219;50.396;8.546;2023-05-29T09:02:24;7.97;;;3.83;;
18188;SDS011;9219;50.396;8.546;2023-05-29T09:04:53;6.00;;;3.70;;
18188;SDS011;9219;50.396;8.546;2023-05-29T09:10:05;10.40;;;3.90;;
18188;SDS011;9219;50.396;8.546;2023-05-29T09:12:33;7.20;;;3.90;;
18188;SDS011;9219;50.396;8.546;2023-05-29T09:15:01;9.03;;;4.03;;
18188;SDS011;9219;50.396;8.546;2023-05-29T09:17:30;7.20;;;3.80;;
18188;SDS011;9219;50.396;8.546;2023-05-29T09:19:58;6.63;;;4.10;;
18188;SDS011;9219;50.396;8.546;2023-05-29T09:22:26;8.03;;;4.17;;
18188;SDS011;9219;50.396;8.546;2023-05-29T09:24:53;10.93;;;4.00;;
18188;SDS011;9219;50.396;8.546;2023-05-29T09:30:01;8.33;;;4.03;;
18188;SDS011;9219;50.396;8.546;2023-05-29T09:32:31;9.17;;;3.73;;
18188;SDS011;9219;50.396;8.546;2023-05-29T09:34:59;8.17;;;3.53;;
18188;SDS011;9219;50.396;8.546;2023-05-29T09:37:27;7.60;;;3.70;;
18188;SDS011;9219;50.396;8.546;2023-05-29T09:39:54;7.80;;;3.37;;
18188;SDS011;9219;50.396;8.546;2023-05-29T09:42:22;9.57;;;4.10;;
18188;SDS011;9219;50.396;8.546;2023-05-29T09:44:52;11.57;;;3.93;;
18188;SDS011;9219;50.396;8.546;2023-05-29T09:50:43;7.30;;;3.20;;
18188;SDS011;9219;50.396;8.546;2023-05-29T09:53:17;6.10;;;3.57;;
18188;SDS011;9219;50.396;8.546;2023-05-29T09:55:45;7.40;;;3.70;;
18188;SDS011;9219;50.396;8.546;2023-05-29T09:58:13;5.30;;;3.40;;
18188;SDS011;9219;50.396;8.546;2023-05-29T10:00:41;5.57;;;3.37;;
18188;SDS011;9219;50.396;8.546;2023-05-29T10:03:10;13.60;;;4.53;;
18188;SDS011;9219;50.396;8.546;2023-05-29T10:05:38;5.10;;;2.93;;
18188;SDS011;9219;50.396;8.546;2023-05-29T10:08:09;5.03;;;3.53;;
18188;SDS011;9219;50.396;8.546;2023-05-29T10:15:59;7.93;;;3.13;;
18188;SDS011;9219;50.396;8.546;2023-05-29T10:18:31;7.63;;;4.03;;
18188;SDS011;9219;50.396;8.546;2023-05-29T10:21:03;17.37;;;4.03;;
18188;SDS011;9219;50.396;8.546;2023-05-29T10:23:31;5.53;;;3.40;;
18188;SDS011;9219;50.396;8.546;2023-05-29T10:26:06;4.90;;;2.90;;
18188;SDS011;9219;50.396;8.546;2023-05-29T10:28:38;4.60;;;3.03;;
18188;SDS011;9219;50.396;8.546;2023-05-29T10:31:10;5.83;;;3.30;;
18188;SDS011;9219;50.396;8.546;2023-05-29T10:41:57;7.93;;;3.03;;
18188;SDS011;9219;50.396;8.546;2023-05-29T10:44:38;4.60;;;3.13;;
18188;SDS011;9219;50.396;8.546;2023-05-29T10:47:06;4.17;;;2.47;;
18188;SDS011;9219;50.396;8.546;2023-05-29T10:49:34;8.43;;;3.00;;
18188;SDS011;9219;50.396;8.546;2023-05-29T10:52:03;7.00;;;3.57;;
18188;SDS011;9219;50.396;8.546;2023-05-29T10:54:39;14.00;;;3.97;;
18188;SDS011;9219;50.396;8.546;2023-05-29T10:57:18;4.43;;;3.17;;
18188;SDS011;9219;50.396;8.546;2023-05-29T11:02:40;7.30;;;3.37;;
18188;SDS011;9219;50.396;8.546;2023-05-29T11:05:21;15.70;;;4.17;;
18188;SDS011;9219;50.396;8.546;2023-05-29T11:07:51;10.17;;;4.03;;
18188;SDS011;9219;50.396;8.546;2023-05-29T11:13:24;4.87;;;3.10;;
18188;SDS011;9219;50.396;8.546;2023-05-29T11:16:11;8.67;;;3.40;;
18188;SDS011;9219;50.396;8.546;2023-05-29T11:18:42;7.10;;;3.30;;
18188;SDS011;9219;50.396;8.546;2023-05-29T11:26:21;4.80;;;3.13;;
18188;SDS011;9219;50.396;8.546;2023-05-29T11:28:49;8.03;;;3.30;;
18188;SDS011;9219;50.396;8.546;2023-05-29T11:31:16;4.33;;;3.13;;
18188;SDS011;9219;50.396;8.546;2023-05-29T11:33:47;7.27;;;3.20;;
18188;SDS011;9219;50.396;8.546;2023-05-29T11:36:15;5.37;;;3.03;;
18188;SDS011;9219;50.396;8.546;2023-05-29T11:38:44;6.30;;;3.70;;
18188;SDS011;9219;50.396;8.546;2023-05-29T11:41:12;7.87;;;3.40;;
18188;SDS011;9219;50.396;8.546;2023-05-29T11:43:42;6.27;;;3.23;;
18188;SDS011;9219;50.396;8.546;2023-05-29T11:51:30;7.07;;;3.23;;
18188;SDS011;9219;50.396;8.546;2023-05-29T11:53:57;3.73;;;2.80;;
18188;SDS011;9219;50.396;8.546;2023-05-29T11:56:25;6.20;;;3.10;;
18188;SDS011;9219;50.396;8.546;2023-05-29T11:58:53;6.47;;;2.60;;
18188;SDS011;9219;50.396;8.546;2023-05-29T12:01:22;6.60;;;3.10;;
18188;SDS011;9219;50.396;8.546;2023-05-29T12:03:50;3.23;;;2.23;;
18188;SDS011;9219;50.396;8.546;2023-05-29T12:06:31;6.00;;;2.67;;
18188;SDS011;9219;50.396;8.546;2023-05-29T12:08:59;4.00;;;2.30;;
18188;SDS011;9219;50.396;8.546;2023-05-29T12:11:42;6.67;;;2.93;;
18188;SDS011;9219;50.396;8.546;2023-05-29T12:14:09;5.13;;;2.73;;
18188;SDS011;9219;50.396;8.546;2023-05-29T12:16:37;6.20;;;2.93;;
18188;SDS011;9219;50.396;8.546;2023-05-29T12:19:04;5.97;;;3.23;;
18188;SDS011;9219;50.396;8.546;2023-05-29T12:21:32;8.43;;;2.87;;
18188;SDS011;9219;50.396;8.546;2023-05-29T12:23:59;7.43;;;2.80;;
18188;SDS011;9219;50.396;8.546;2023-05-29T12:26:29;4.67;;;2.83;;
18188;SDS011;9219;50.396;8.546;2023-05-29T12:32:10;3.27;;;2.23;;
18188;SDS011;9219;50.396;8.546;2023-05-29T12:34:37;3.73;;;2.53;;
18188;SDS011;9219;50.396;8.546;2023-05-29T12:37:06;8.87;;;3.00;;
18188;SDS011;9219;50.396;8.546;2023-05-29T12:39:38;5.57;;;3.13;;
18188;SDS011;9219;50.396;8.546;2023-05-29T12:42:06;5.40;;;2.50;;
18188;SDS011;9219;50.396;8.546;2023-05-29T12:44:34;5.73;;;3.10;;
18188;SDS011;9219;50.396;8.546;2023-05-29T12:47:04;6.37;;;3.10;;
18188;SDS011;9219;50.396;8.546;2023-05-29T12:54:37;4.30;;;3.17;;
18188;SDS011;9219;50.396;8.546;2023-05-29T12:57:06;5.10;;;3.23;;
18188;SDS011;9219;50.396;8.546;2023-05-29T12:59:33;7.00;;;3.20;;
18188;SDS011;9219;50.396;8.546;2023-05-29T13:02:01;3.93;;;2.97;;
18188;SDS011;9219;50.396;8.546;2023-05-29T13:04:28;4.57;;;2.70;;
18188;SDS011;9219;50.396;8.546;2023-05-29T13:06:56;6.23;;;2.60;;
18188;SDS011;9219;50.396;8.546;2023-05-29T13:09:23;5.43;;;2.83;;
18188;SDS011;9219;50.396;8.546;2023-05-29T13:14:30;4.70;;;2.67;;
18188;SDS011;9219;50.396;8.546;2023-05-29T13:16:57;5.97;;;3.17;;
18188;SDS011;9219;50.396;8.546;2023-05-29T13:19:24;4.40;;;2.63;;
18188;SDS011;9219;50.396;8.546;2023-05-29T13:21:52;6.77;;;3.37;;
18188;SDS011;9219;50.396;8.546;2023-05-29T13:24:19;9.87;;;2.90;;
18188;SDS011;9219;50.396;8.546;2023-05-29T13:26:46;4.80;;;2.73;;
18188;SDS011;9219;50.396;8.546;2023-05-29T13:29:14;4.93;;;3.37;;
18188;SDS011;9219;50.396;8.546;2023-05-29T13:31:43;9.57;;;3.47;;
18188;SDS011;9219;50.396;8.546;2023-05-29T13:34:24;6.57;;;3.63;;
18188;SDS011;9219;50.396;8.546;2023-05-29T13:36:54;4.83;;;2.73;;
18188;SDS011;9219;50.396;8.546;2023-05-29T13:39:22;4.77;;;2.73;;
18188;SDS011;9219;50.396;8.546;2023-05-29T13:41:50;6.53;;;3.23;;
18188;SDS011;9219;50.396;8.546;2023-05-29T13:44:18;7.20;;;3.93;;
18188;SDS011;9219;50.396;8.546;2023-05-29T13:46:46;6.23;;;2.97;;
18188;SDS011;9219;50.396;8.546;2023-05-29T13:49:13;10.10;;;3.00;;
18188;SDS011;9219;50.396;8.546;2023-05-29T13:51:42;9.53;;;3.17;;
18188;SDS011;9219;50.396;8.546;2023-05-29T13:59:29;4.53;;;2.70;;
18188;SDS011;9219;50.396;8.546;2023-05-29T14:01:57;8.13;;;3.27;;
18188;SDS011;9219;50.396;8.546;2023-05-29T14:04:24;7.13;;;3.37;;
18188;SDS011;9219;50.396;8.546;2023-05-29T14:06:52;6.60;;;3.20;;
18188;SDS011;9219;50.396;8.546;2023-05-29T14:09:20;9.47;;;3.17;;
18188;SDS011;9219;50.396;8.546;2023-05-29T14:11:53;7.23;;;3.50;;
18188;SDS011;9219;50.396;8.546;2023-05-29T14:14:21;4.40;;;3.17;;
18188;SDS011;9219;50.396;8.546;2023-05-29T14:25:08;3.63;;;2.83;;
18188;SDS011;9219;50.396;8.546;2023-05-29T14:27:39;5.73;;;2.77;;
18188;SDS011;9219;50.396;8.546;2023-05-29T14:30:07;13.00;;;4.83;;
18188;SDS011;9219;50.396;8.546;2023-05-29T14:32:34;6.57;;;3.50;;
18188;SDS011;9219;50.396;8.546;2023-05-29T14:35:03;4.57;;;2.87;;
18188;SDS011;9219;50.396;8.546;2023-05-29T14:37:32;4.70;;;3.17;;
18188;SDS011;9219;50.396;8.546;2023-05-29T14:39:59;5.77;;;3.10;;
18188;SDS011;9219;50.396;8.546;2023-05-29T14:42:28;4.00;;;2.60;;
18188;SDS011;9219;50.396;8.546;2023-05-29T14:45:09;7.23;;;3.20;;
18188;SDS011;9219;50.396;8.546;2023-05-29T14:47:37;3.10;;;2.77;;
18188;SDS011;9219;50.396;8.546;2023-05-29T14:50:04;4.90;;;3.00;;
18188;SDS011;9219;50.396;8.546;2023-05-29T14:52:33;6.20;;;2.90;;
18188;SDS011;9219;50.396;8.546;2023-05-29T14:55:01;4.60;;;2.73;;
18188;SDS011;9219;50.396;8.546;2023-05-29T14:57:31;4.77;;;2.83;;
18188;SDS011;9219;50.396;8.546;2023-05-29T15:00:00;4.77;;;3.20;;
18188;SDS011;9219;50.396;8.546;2023-05-29T15:02:28;5.60;;;2.90;;
18188;SDS011;9219;50.396;8.546;2023-05-29T15:10:01;10.40;;;3.37;;
18188;SDS011;9219;50.396;8.546;2023-05-29T15:12:28;6.40;;;2.87;;
18188;SDS011;9219;50.396;8.546;2023-05-29T15:14:57;5.93;;;3.10;;
18188;SDS011;9219;50.396;8.546;2023-05-29T15:17:24;5.53;;;2.77;;
18188;SDS011;9219;50.396;8.546;2023-05-29T15:19:51;6.77;;;3.33;;
18188;SDS011;9219;50.396;8.546;2023-05-29T15:22:19;5.60;;;3.10;;
18188;SDS011;9219;50.396;8.546;2023-05-29T15:24:46;5.43;;;2.97;;
18188;SDS011;9219;50.396;8.546;2023-05-29T15:33:05;7.20;;;3.07;;
18188;SDS011;9219;50.396;8.546;2023-05-29T15:35:35;3.83;;;2.43;;
18188;SDS011;9219;50.396;8.546;2023-05-29T15:38:03;5.30;;;3.00;;
18188;SDS011;9219;50.396;8.546;2023-05-29T15:40:31;5.67;;;2.67;;
18188;SDS011;9219;50.396;8.546;2023-05-29T15:42:58;6.90;;;2.77;;
18188;SDS011;9219;50.396;8.546;2023-05-29T15:45:26;6.13;;;2.73;;
18188;SDS011;9219;50.396;8.546;2023-05-29T15:47:53;7.63;;;2.83;;
18188;SDS011;9219;50.396;8.546;2023-05-29T15:50:22;10.70;;;3.47;;
18188;SDS011;9219;50.396;8.546;2023-05-29T15:58:08;5.43;;;2.67;;
18188;SDS011;9219;50.396;8.546;2023-05-29T16:00:36;7.13;;;2.70;;
18188;SDS011;9219;50.396;8.546;2023-05-29T16:03:03;5.53;;;2.93;;
18188;SDS011;9219;50.396;8.546;2023-05-29T16:05:30;9.30;;;3.00;;
18188;SDS011;9219;50.396;8.546;2023-05-29T16:07:58;5.40;;;3.20;;
18188;SDS011;9219;50.396;8.546;2023-05-29T16:10:25;4.27;;;3.20;;
18188;SDS011;9219;50.396;8.546;2023-05-29T16:12:54;6.10;;;3.10;;
18188;SDS011;9219;50.396;8.546;2023-05-29T16:15:22;8.00;;;2.50;;
18188;SDS011;9219;50.396;8.546;2023-05-29T16:22:54;4.47;;;2.93;;
18188;SDS011;9219;50.396;8.546;2023-05-29T16:25:22;7.17;;;2.80;;
18188;SDS011;9219;50.396;8.546;2023-05-29T16:27:49;4.00;;;2.60;;
18188;SDS011;9219;50.396;8.546;2023-05-29T16:30:16;6.60;;;2.70;;
18188;SDS011;9219;50.396;8.546;2023-05-29T16:32:43;7.30;;;3.13;;
18188;SDS011;9219;50.396;8.546;2023-05-29T16:35:10;10.27;;;3.40;;
18188;SDS011;9219;50.396;8.546;2023-05-29T16:37:39;5.67;;;3.07;;
18188;SDS011;9219;50.396;8.546;2023-05-29T16:42:51;4.67;;;3.40;;
18188;SDS011;9219;50.396;8.546;2023-05-29T16:45:19;6.63;;;3.37;;
18188;SDS011;9219;50.396;8.546;2023-05-29T16:47:46;5.43;;;2.83;;
18188;SDS011;9219;50.396;8.546;2023-05-29T16:50:14;8.37;;;3.30;;
18188;SDS011;9219;50.396;8.546;2023-05-29T16:52:42;7.20;;;3.00;;
18188;SDS011;9219;50.396;8.546;2023-05-29T16:55:09;10.43;;;3.57;;
18188;SDS011;9219;50.396;8.546;2023-05-29T16:57:36;6.40;;;2.83;;
18188;SDS011;9219;50.396;8.546;2023-05-29T17:00:09;8.67;;;2.90;;
18188;SDS011;9219;50.396;8.546;2023-05-29T17:07:43;6.80;;;3.00;;
18188;SDS011;9219;50.396;8.546;2023-05-29T17:10:10;8.27;;;3.30;;
18188;SDS011;9219;50.396;8.546;2023-05-29T17:12:38;5.63;;;3.13;;
18188;SDS011;9219;50.396;8.546;2023-05-29T17:15:05;9.53;;;2.93;;
18188;SDS011;9219;50.396;8.546;2023-05-29T17:17:33;7.53;;;3.43;;
18188;SDS011;9219;50.396;8.546;2023-05-29T17:20:00;7.63;;;3.40;;
18188;SDS011;9219;50.396;8.546;2023-05-29T17:22:29;8.17;;;2.83;;
18188;SDS011;9219;50.396;8.546;2023-05-29T17:30:46;6.63;;;3.40;;
18188;SDS011;9219;50.396;8.546;2023-05-29T17:33:13;7.60;;;2.90;;
18188;SDS011;9219;50.396;8.546;2023-05-29T17:35:41;9.30;;;3.57;;
18188;SDS011;9219;50.396;8.546;2023-05-29T17:38:08;7.07;;;3.00;;
18188;SDS011;9219;50.396;8.546;2023-05-29T17:40:36;6.67;;;3.27;;
18188;SDS011;9219;50.396;8.546;2023-05-29T17:43:03;9.13;;;4.03;;
18188;SDS011;9219;50.396;8.546;2023-05-29T17:45:32;9.83;;;2.93;;
18188;SDS011;9219;50.396;8.546;2023-05-29T17:50:40;13.40;;;3.93;;
18188;SDS011;9219;50.396;8.546;2023-05-29T17:53:08;12.50;;;3.73;;
18188;SDS011;9219;50.396;8.546;2023-05-29T17:55:35;9.80;;;3.10;;
18188;SDS011;9219;50.396;8.546;2023-05-29T17:58:02;10.07;;;3.80;;
18188;SDS011;9219;50.396;8.546;2023-05-29T18:00:30;9.97;;;3.27;;
18188;SDS011;9219;50.396;8.546;2023-05-29T18:02:58;9.80;;;3.43;;
18188;SDS011;9219;50.396;8.546;2023-05-29T18:05:26;7.87;;;3.23;;
18188;SDS011;9219;50.396;8.546;2023-05-29T18:13:29;7.57;;;3.70;;
18188;SDS011;9219;50.396;8.546;2023-05-29T18:15:57;6.97;;;3.17;;
18188;SDS011;9219;50.396;8.546;2023-05-29T18:18:25;12.17;;;3.37;;
18188;SDS011;9219;50.396;8.546;2023-05-29T18:20:52;5.00;;;2.97;;
18188;SDS011;9219;50.396;8.546;2023-05-29T18:23:19;8.23;;;2.97;;
18188;SDS011;9219;50.396;8.546;2023-05-29T18:25:47;7.13;;;3.07;;
18188;SDS011;9219;50.396;8.546;2023-05-29T18:28:15;9.77;;;3.20;;
18188;SDS011;9219;50.396;8.546;2023-05-29T18:41:54;5.27;;;3.43;;
18188;SDS011;9219;50.396;8.546;2023-05-29T18:44:22;9.23;;;3.23;;